• Join FlightAware (Why Join?)
  • Login
  • US Flag 
03:44PM EDT


 

Airport Tracker/Info


-or-


 

Live Flight TrackerFlight Track Log ✈ WWI24 ✈ 11-Apr-2012 ✈ KVNY - KBKL

Flight Track Log - Related Links

Times and Time Zones

All times are in EDT time to prevent confusion due to time zone crossing. See the WWI24 flight status page for this flight to view local times or setup timezone preferences in your user account.

Time Position Orientation Groundspeed Altitude Reporting Facility
EDT Latitude Longitude Course Direction KTS MPH feet Rate Location/Type
02:58AM 34.1833 -118.4833 115° Southeast 192 221 1,700  Level Southern California TRACON
03:00AM 34.1539 -118.4081 356° North 208 239 4,500 2,460 Climbing Los Angeles Center
03:01AM 34.2372 -118.4153 344° North 140 161 8,000 3,240 Climbing Los Angeles Center
03:02AM 34.3139 -118.4425 355° North 212 244 11,000 2,700 Climbing Los Angeles Center
03:03AM 34.4056 -118.4528 60° Northeast 260 299 13,400 2,580 Climbing Los Angeles Center
03:04AM 34.4556 -118.3458 54° Northeast 282 325 16,200 2,280 Climbing Los Angeles Center
03:05AM 34.5200 -118.2389 52° Northeast 340 391 18,000 1,800 Climbing Los Angeles Center
03:06AM 34.5822 -118.1422 63° Northeast 376 433 19,800 1,920 Climbing Los Angeles Center
03:07AM 34.6364 -118.0147 82° East 399 459 21,900 1,980 Climbing Los Angeles Center
03:08AM 34.6533 -117.8611 79° East 421 484 23,800 1,680 Climbing Los Angeles Center
03:09AM 34.6786 -117.7025 73° East 448 516 25,300 1,620 Climbing Los Angeles Center
03:10AM 34.7181 -117.5414 72° East 477 549 27,100 1,500 Climbing Los Angeles Center
03:11AM 34.7617 -117.3753 73° East 494 568 28,400 1,380 Climbing Los Angeles Center
03:12AM 34.8028 -117.2064 72° East 507 583 29,900 1,500 Climbing Los Angeles Center
03:13AM 34.8525 -117.0147 74° East 527 606 31,500 1,500 Climbing Los Angeles Center
03:14AM 34.8953 -116.8381 73° East 532 612 33,000 1,380 Climbing Los Angeles Center
03:15AM 34.9400 -116.6611 58° Northeast 537 618 34,300 1,260 Climbing Los Angeles Center
03:16AM 35.0200 -116.5042 46° Northeast 537 618 35,600 1,200 Climbing Los Angeles Center
03:17AM 35.1206 -116.3778 46° Northeast 525 604 36,800 1,140 Climbing Los Angeles Center
03:18AM 35.2231 -116.2483 45° Northeast 525 604 37,900 900 Climbing Los Angeles Center
03:19AM 35.3231 -116.1239 46° Northeast 515 593 38,700 540 Climbing Los Angeles Center
03:20AM 35.4233 -115.9964 45° Northeast 510 587 39,000 120 Climbing Los Angeles Center
03:21AM 35.5233 -115.8736 46° Northeast 504 580 39,000  Level Los Angeles Center
03:22AM 35.6231 -115.7456 46° Northeast 504 580 39,000  Level Los Angeles Center
03:23AM 35.7247 -115.6147 49° Northeast 509 586 39,000  Level Los Angeles Center
03:24AM 35.8203 -115.4783 58° Northeast 516 594 39,000  Level Los Angeles Center
03:25AM 35.8922 -115.3342 66° East 530 610 39,000  Level Los Angeles Center
03:26AM 35.9536 -115.1669 66° East 530 610 39,000  Level Los Angeles Center
03:27AM 36.0150 -114.9992 67° East 525 604 39,000  Level Los Angeles Center
03:28AM 36.0736 -114.8289 66° East 530 610 39,000  Level Los Angeles Center
03:29AM 36.1344 -114.6608 66° East 530 610 39,000  Level Los Angeles Center
03:30AM 36.1947 -114.4897 67° East 530 610 39,000  Level Los Angeles Center
03:31AM 36.2528 -114.3186 66° East 530 610 39,000  Level Los Angeles Center
03:32AM 36.3128 -114.1472 67° East 535 616 39,000  Level Los Angeles Center
03:33AM 36.3706 -113.9756 67° East 541 623 39,000  Level Los Angeles Center
03:34AM 36.4300 -113.8036 67° East 541 623 39,000 60 Level Los Angeles Center
03:35AM 36.4892 -113.6314 67° East 541 623 39,200 300 Climbing Los Angeles Center
03:36AM 36.5519 -113.4433 68° East 534 615 39,700 480 Climbing Los Angeles Center
03:37AM 36.6064 -113.2786 67° East 529 609 40,200 480 Climbing Los Angeles Center
03:38AM 36.6631 -113.1108 68° East 524 603 40,700 360 Climbing Los Angeles Center
03:39AM 36.7094 -112.9642 67° East 519 597 41,000 120 Climbing Los Angeles Center
03:40AM 36.7653 -112.7961 67° East 519 597 41,000  Level Los Angeles Center
03:41AM 36.8211 -112.6275 68° East 519 597 41,000  Level Los Angeles Center
03:42AM 36.8767 -112.4564 68° East 519 597 41,000  Level Los Angeles Center
03:44AM 37.0047 -112.0517 69° East 540 621 41,000  Level Denver Center
03:45AM 37.0517 -111.8992 68° East 535 616 41,000  Level Denver Center
03:46AM 37.1056 -111.7314 68° East 529 609 41,000  Level Denver Center
03:47AM 37.1617 -111.5531 68° East 529 609 41,000  Level Denver Center
03:48AM 37.2147 -111.3847 69° East 529 609 41,000  Level Denver Center
03:49AM 37.2681 -111.2111 69° East 523 602 41,000  Level Denver Center
03:50AM 37.3208 -111.0422 69° East 518 596 41,000  Level Denver Center
03:51AM 37.3711 -110.8756 69° East 518 596 41,000  Level Denver Center
03:52AM 37.4261 -110.6908 68° East 518 596 41,000  Level Denver Center
03:53AM 37.4803 -110.5214 66° East 518 596 41,000  Level Denver Center
03:54AM 37.5406 -110.3519 69° East 527 606 41,000  Level Denver Center
03:55AM 37.5919 -110.1819 70° East 527 606 41,000  Level Denver Center
03:56AM 37.6389 -110.0217 70° East 527 606 41,000  Level Denver Center
03:57AM 37.6878 -109.8511 69° East 521 600 41,000  Level Denver Center
03:58AM 37.7456 -109.6594 69° East 526 605 41,000  Level Denver Center
03:59AM 37.7961 -109.4883 70° East 526 605 41,000  Level Denver Center
04:00AM 37.8397 -109.3325 70° East 520 598 41,000  Level Denver Center
04:01AM 37.8897 -109.1556 69° East 520 598 41,000  Level Denver Center
04:02AM 37.9464 -108.9631 70° East 528 608 41,000  Level Denver Center
04:03AM 37.9958 -108.7908 70° East 521 600 41,000  Level Denver Center
04:04AM 38.0383 -108.6394 72° East 511 588 41,000  Level Denver Center
04:05AM 38.0856 -108.4536 70° East 501 577 41,000  Level Denver Center
04:06AM 38.1322 -108.2886 71° East 501 577 41,000  Level Denver Center
04:07AM 38.1742 -108.1367 70° East 495 570 41,000  Level Denver Center
04:08AM 38.2267 -107.9503 72° East 500 575 41,000  Level Denver Center
04:09AM 38.2706 -107.7819 70° East 500 575 41,000  Level Denver Center
04:10AM 38.3181 -107.6133 71° East 505 581 41,000  Level Denver Center
04:11AM 38.3592 -107.4606 71° East 499 574 41,000  Level Denver Center
04:12AM 38.4086 -107.2758 72° East 499 574 41,000  Level Denver Center
04:13AM 38.4514 -107.1119 71° East 499 574 41,000  Level Denver Center
04:14AM 38.4917 -106.9611 71° East 489 563 41,000  Level Denver Center
04:15AM 38.5361 -106.7969 72° East 489 563 41,000  Level Denver Center
04:16AM 38.5844 -106.6111 71° East 489 563 41,000  Level Denver Center
04:17AM 38.6283 -106.4439 71° East 489 563 41,000  Level Denver Center
04:18AM 38.6658 -106.3003 72° East 481 554 41,000  Level Denver Center
04:19AM 38.7111 -106.1167 71° East 476 548 41,000  Level Denver Center
04:20AM 38.7544 -105.9539 72° East 482 555 41,000  Level Denver Center
04:21AM 38.7953 -105.7886 72° East 482 555 41,000  Level Denver Center
04:22AM 38.8358 -105.6231 71° East 482 555 41,000  Level Denver Center
04:23AM 38.8803 -105.4544 72° East 489 563 41,000  Level Denver Center
04:24AM 38.9225 -105.2883 73° East 489 563 41,000  Level Denver Center
04:25AM 38.9583 -105.1381 72° East 483 556 41,000  Level Denver Center
04:26AM 38.9981 -104.9772 72° East 478 550 41,000  Level Denver Center
04:27AM 39.0397 -104.8131 74° East 478 550 41,000  Level Denver Center
04:28AM 39.0767 -104.6464 72° East 478 550 41,000  Level Denver Center
04:29AM 39.1178 -104.4847 73° East 478 550 41,000  Level Denver Center
04:30AM 39.1567 -104.3203 72° East 478 550 41,000  Level Denver Center
04:31AM 39.1972 -104.1556 73° East 478 550 41,000  Level Denver Center
04:32AM 39.2356 -103.9936 73° East 478 550 41,000  Level Denver Center
04:33AM 39.2756 -103.8283 73° East 478 550 41,000  Level Denver Center
04:34AM 39.3133 -103.6633 73° East 478 550 41,000  Level Denver Center
04:35AM 39.3508 -103.5006 74° East 478 550 41,000  Level Denver Center
04:36AM 39.3919 -103.3161 72° East 485 558 41,000  Level Denver Center
04:37AM 39.4350 -103.1447 74° East 485 558 41,000  Level Denver Center
04:38AM 39.4736 -102.9706 74° East 491 565 41,000  Level Denver Center
04:39AM 39.5119 -102.7992 74° East 491 565 41,000  Level Denver Center
04:40AM 39.5503 -102.6300 74° East 491 565 41,000  Level Denver Center
04:41AM 39.5881 -102.4528 75° East 491 565 41,000  Level Denver Center
04:42AM 39.6236 -102.2781 74° East 501 577 41,000  Level Denver Center
04:43AM 39.6594 -102.1194 74° East 501 577 41,000  Level Denver Center
04:44AM 39.7019 -101.9278 76° East 501 577 41,000  Level Denver Center
04:45AM 39.7367 -101.7525 75° East 501 577 41,000  Level Denver Center
04:46AM 39.7731 -101.5744 75° East 501 577 41,000  Level Denver Center
04:47AM 39.8058 -101.4178 74° East 501 577 41,000  Level Denver Center
04:48AM 39.8475 -101.2281 76° East 501 577 41,000  Level Denver Center
04:49AM 39.8828 -101.0494 74° East 506 582 41,000  Level Denver Center
04:50AM 39.9169 -100.8894 75° East 501 577 41,000  Level Denver Center
04:51AM 39.9519 -100.7131 74° East 501 577 41,000  Level Denver Center
04:52AM 39.9925 -100.5225 76° East 501 577 41,000  Level Denver Center
04:53AM 40.0267 -100.3431 75° East 502 578 41,000  Level Denver Center
04:54AM 40.0597 -100.1828 76° East 502 578 41,000  Level Denver Center
04:55AM 40.0989 -99.9836 76° East 502 578 41,000  Level Denver Center
04:56AM 40.1292 -99.8231 76° East 502 578 41,000  Level Denver Center
04:58AM 40.1972 -99.4558 76° East 514 592 41,000  Level Minneapolis Center
04:59AM 40.2322 -99.2719 77° East 519 597 41,000  Level Minneapolis Center
05:00AM 40.2647 -99.0900 75° East 519 597 41,000  Level Minneapolis Center
05:01AM 40.3011 -98.9086 76° East 519 597 41,000  Level Minneapolis Center
05:02AM 40.3350 -98.7292 77° East 519 597 41,000  Level Minneapolis Center
05:03AM 40.3667 -98.5469 76° East 519 597 41,000  Level Minneapolis Center
05:04AM 40.4000 -98.3672 77° East 519 597 41,000  Level Minneapolis Center
05:05AM 40.4331 -98.1819 76° East 519 597 41,000 300 Level Minneapolis Center
05:06AM 40.4658 -98.0019 77° East 519 597 41,600 720 Climbing Minneapolis Center
05:07AM 40.4958 -97.8269 77° East 508 585 42,500 660 Climbing Minneapolis Center
05:08AM 40.5256 -97.6572 76° East 486 559 43,000 240 Climbing Minneapolis Center
05:09AM 40.5569 -97.4875 80° East 481 554 43,000  Level Minneapolis Center
05:10AM 40.5769 -97.3361 77° East 481 554 43,000  Level Minneapolis Center
05:11AM 40.6061 -97.1631 78° East 481 554 43,000  Level Minneapolis Center
05:12AM 40.6347 -96.9847 77° East 486 559 43,000  Level Minneapolis Center
05:13AM 40.6681 -96.7897 78° East 492 566 43,000  Level Minneapolis Center
05:14AM 40.6961 -96.6136 77° East 492 566 43,000  Level Minneapolis Center
05:15AM 40.7261 -96.4375 78° East 492 566 43,000  Level Minneapolis Center
05:16AM 40.7539 -96.2583 79° East 492 566 43,000  Level Minneapolis Center
05:17AM 40.7814 -96.0761 78° East 497 572 43,000  Level Minneapolis Center
05:18AM 40.8106 -95.8967 78° East 503 579 43,000  Level Minneapolis Center
05:19AM 40.8392 -95.7197 79° East 503 579 43,000  Level Minneapolis Center
05:20AM 40.8658 -95.5372 79° East 503 579 43,000  Level Minneapolis Center
05:21AM 40.8942 -95.3517 78° East 503 579 43,000  Level Minneapolis Center
05:22AM 40.9222 -95.1744 79° East 503 579 43,000  Level Minneapolis Center
05:23AM 40.9497 -94.9914 79° East 503 579 43,000  Level Minneapolis Center
05:24AM 40.9750 -94.8136 79° East 503 579 43,000  Level Minneapolis Center
05:25AM 41.0022 -94.6331 80° East 503 579 43,000  Level Minneapolis Center
05:26AM 41.0225 -94.4742 79° East 498 573 43,000  Level Minneapolis Center
05:28AM 41.0758 -94.1103 79° East 506 582 43,000  Level Chicago Center
05:29AM 41.1019 -93.9275 80° East 500 575 43,000  Level Chicago Center
05:30AM 41.1281 -93.7392 79° East 500 575 43,000  Level Chicago Center
05:31AM 41.1539 -93.5533 79° East 507 583 43,000  Level Chicago Center
05:32AM 41.1792 -93.3728 80° East 507 583 43,000  Level Chicago Center
05:33AM 41.2022 -93.1892 80° East 501 577 43,000  Level Chicago Center
05:34AM 41.2247 -93.0108 81° East 501 577 43,000  Level Chicago Center
05:35AM 41.2469 -92.8300 79° East 501 577 43,000  Level Chicago Center
05:36AM 41.2733 -92.6489 82° East 501 577 43,000  Level Chicago Center
05:37AM 41.2928 -92.4703 82° East 496 571 43,000  Level Chicago Center
05:38AM 41.3150 -92.2611 81° East 503 579 43,000  Level Chicago Center
05:39AM 41.3364 -92.0767 79° East 503 579 43,000  Level Chicago Center
05:40AM 41.3611 -91.9006 82° East 496 571 43,000  Level Chicago Center
05:41AM 41.3819 -91.7106 81° East 501 577 43,000  Level Chicago Center
05:42AM 41.4042 -91.5314 81° East 501 577 43,000  Level Chicago Center
05:43AM 41.4264 -91.3494 81° East 501 577 43,000  Level Chicago Center
05:44AM 41.4456 -91.1919 82° East 484 557 43,000  Level Chicago Center
05:45AM 41.4653 -91.0069 82° East 489 563 43,000  Level Chicago Center
05:46AM 41.4844 -90.8244 81° East 495 570 43,000  Level Chicago Center
05:47AM 41.5075 -90.6225 81° East 500 575 43,000  Level Chicago Center
05:48AM 41.5281 -90.4428 82° East 500 575 43,000  Level Chicago Center
05:49AM 41.5464 -90.2600 82° East 500 575 43,000  Level Chicago Center
05:50AM 41.5644 -90.0797 82° East 500 575 43,000  Level Chicago Center
05:51AM 41.5842 -89.8967 82° East 495 570 43,000  Level Chicago Center
05:52AM 41.6036 -89.7108 84° East 500 575 43,000  Level Chicago Center
05:53AM 41.6186 -89.5306 83° East 500 575 43,000  Level Chicago Center
05:54AM 41.6356 -89.3444 82° East 500 575 43,000  Level Chicago Center
05:55AM 41.6542 -89.1581 83° East 505 581 43,000  Level Chicago Center
05:56AM 41.6725 -88.9692 82° East 505 581 43,000  Level Chicago Center
05:57AM 41.6906 -88.7883 84° East 499 574 43,000  Level Chicago Center
05:58AM 41.7061 -88.6017 83° East 504 580 43,000  Level Chicago Center
05:59AM 41.7233 -88.4181 84° East 504 580 43,000  Level Chicago Center
06:00AM 41.7383 -88.2311 83° East 504 580 43,000  Level Chicago Center
06:01AM 41.7533 -88.0667 84° East 498 573 43,000  Level Chicago Center
06:02AM 41.7678 -87.8828 83° East 498 573 43,000  Level Chicago Center
06:03AM 41.7842 -87.6986 84° East 498 573 43,000  Level Chicago Center
06:04AM 41.7981 -87.5172 84° East 498 573 43,000  Level Chicago Center
06:05AM 41.8136 -87.3272 84° East 503 579 43,000  Level Chicago Center
06:06AM 41.8269 -87.1456 85° East 503 579 43,000  Level Chicago Center
06:07AM 41.8400 -86.9614 84° East 503 579 43,000  Level Chicago Center
06:08AM 41.8547 -86.7767 85° East 503 579 43,000  Level Chicago Center
06:09AM 41.8669 -86.5894 84° East 508 585 43,000  Level Chicago Center
06:10AM 41.8811 -86.4019 84° East 501 577 43,000  Level Chicago Center
06:11AM 41.8964 -86.1975 85° East 501 577 43,000  Level Chicago Center
06:12AM 41.9081 -86.0128 84° East 501 577 43,000  Level Chicago Center
06:13AM 41.9214 -85.8306 86° East 496 571 43,000 -240 Level Chicago Center
06:14AM 41.9300 -85.6458 84° East 501 577 42,600 -1,020 Descending Chicago Center
06:16AM 41.9517 -85.3722 86° East 497 572 40,400 -1,560 Descending Cleveland Center
06:17AM 41.9617 -85.1775 86° East 486 559 38,600 -1,860 Descending Cleveland Center
06:18AM 41.9711 -84.9908 85° East 491 565 36,700 -1,860 Descending Cleveland Center
06:19AM 41.9822 -84.8044 86° East 502 578 34,900 -1,620 Descending Cleveland Center
06:20AM 41.9911 -84.6206 86° East 495 570 33,500 -1,260 Descending Cleveland Center
06:21AM 41.9994 -84.4367 86° East 495 570 32,400 -1,380 Descending Cleveland Center
06:22AM 42.0094 -84.2611 86° East 478 550 30,800 -1,620 Descending Cleveland Center
06:23AM 42.0192 -84.0800 87° East 478 550 29,200 -1,500 Descending Cleveland Center
06:24AM 42.0264 -83.9069 87° East 472 543 27,800 -1,440 Descending Cleveland Center
06:25AM 42.0333 -83.7339 87° East 465 535 26,400 -1,500 Descending Cleveland Center
06:26AM 42.0400 -83.5664 88° East 459 528 24,900 -1,200 Descending Cleveland Center
06:27AM 42.0436 -83.4183 98° East 440 506 24,000 -480 Descending Cleveland Center
06:28AM 42.0269 -83.2500 96° East 440 506 24,000 -480 Level Cleveland Center
06:28AM 42.0186 -83.1517 98° East 450 518 23,300 -1,680 Descending Cleveland Center
06:29AM 42.0067 -83.0367 97° East 444 511 22,000 -1,980 Descending Cleveland Center
06:30AM 41.9947 -82.9106 98° East 439 505 20,400 -2,040 Descending Cleveland Center
06:31AM 41.9789 -82.7564 98° East 421 484 18,400 -1,500 Descending Cleveland Center
06:32AM 41.9647 -82.6217 97° East 408 470 17,500 -1,020 Descending Cleveland Center
06:33AM 41.9506 -82.4761 98° East 403 464 16,400 -1,080 Descending Cleveland Center
06:34AM 41.9361 -82.3333 99° East 392 451 15,400 -1,200 Descending Cleveland Center
06:35AM 41.9194 -82.1850 97° East 378 435 14,100 -1,500 Descending Cleveland Center
06:36AM 41.9069 -82.0478 110° East 367 422 12,500 -1,740 Descending Cleveland Center
06:37AM 41.8728 -81.9244 127° Southeast 357 411 10,700 -1,620 Descending Cleveland Center
06:38AM 41.8178 -81.8258 126° Southeast 340 391 9,300 -1,200 Descending Cleveland Center
06:38AM 41.7747 -81.7469 144° Southeast 286 329 8,400 -1,560 Descending Cleveland Center
06:39AM 41.7086 -81.6817 145° Southeast 283 326 6,300 -1,740 Descending Cleveland Center
06:40AM 41.6447 -81.6222 152° Southeast 270 311 4,900 -1,260 Descending Cleveland Center
06:41AM 41.5928 -81.5853 205° Southwest 204 235 3,800 -1,320 Descending Cleveland Center
06:42AM 41.5531 -81.6097 239° Southwest 171 197 2,400 -1,440 Descending Cleveland Center
06:44AM 41.5253 -81.6703 239° Southwest 154 177 800 -1,320 Descending Cleveland Center